Time;durP1;ratioP1;P1;durP2;ratioP2;P2;SDS_P1;SDS_P2;PMS_P1;PMS_P2;Temp;Humidity;BMP_temperature;BMP_pressure;BME280_temperature;BME280_humidity;BME280_pressure;Samples;Min_cycle;Max_cycle;Signal;HPM_P1;HPM_P2
2021/12/09 00:07:37;;;;;;;10.25;2.97;;;3.10;99.90;;;;;;6744413;88;20217;-75
2021/12/09 00:17:37;;;;;;;5.47;2.53;;;3.30;99.90;;;;;;6740445;88;21078;-75
2021/12/09 00:27:38;;;;;;;11.38;3.40;;;3.20;99.90;;;;;;6742739;88;20713;-74
2021/12/09 00:37:50;;;;;;;10.50;3.30;;;2.90;99.90;;;;;;6743544;88;20221;-74
2021/12/09 00:47:51;;;;;;;10.48;3.62;;;2.50;99.90;;;;;;6743349;88;20205;-73
2021/12/09 00:57:51;;;;;;;10.57;4.32;;;2.30;99.90;;;;;;6749898;88;20177;-73
2021/12/09 01:07:52;;;;;;;14.63;3.78;;;2.20;99.90;;;;;;6758366;88;20324;-74
2021/12/09 01:17:53;;;;;;;11.10;3.90;;;2.00;99.90;;;;;;6755062;88;20225;-74
2021/12/09 01:27:56;;;;;;;13.52;4.07;;;2.00;99.90;;;;;;6766028;88;20278;-75
2021/12/09 01:38:00;;;;;;;12.00;3.40;;;2.10;99.90;;;;;;6747192;88;20315;-74
2021/12/09 01:48:01;;;;;;;11.18;3.33;;;2.30;99.90;;;;;;6747173;88;20278;-74
2021/12/09 01:58:02;;;;;;;11.65;3.58;;;2.50;99.90;;;;;;6742570;88;20200;-74
2021/12/09 02:08:03;;;;;;;7.50;3.37;;;2.60;99.90;;;;;;6748552;88;20395;-74
2021/12/09 02:18:06;;;;;;;10.07;3.60;;;2.70;99.90;;;;;;6740526;88;20185;-74
2021/12/09 02:28:07;;;;;;;9.25;3.40;;;2.60;99.90;;;;;;6747121;88;20208;-74
2021/12/09 02:38:08;;;;;;;13.05;3.55;;;2.50;99.90;;;;;;6742399;88;20212;-74
2021/12/09 02:48:09;;;;;;;5.70;2.55;;;2.40;99.90;;;;;;6749250;88;20202;-74
2021/12/09 02:58:10;;;;;;;9.60;2.95;;;2.60;99.90;;;;;;6740905;88;20287;-74
2021/12/09 03:08:11;;;;;;;6.37;2.35;;;2.70;99.90;;;;;;6741612;88;20746;-74
2021/12/09 03:18:12;;;;;;;7.93;2.30;;;2.90;99.90;;;;;;6745770;88;20326;-74
2021/12/09 03:28:12;;;;;;;8.82;3.03;;;2.90;99.90;;;;;;6747740;88;20272;-74
2021/12/09 03:38:13;;;;;;;14.95;3.28;;;2.90;99.90;;;;;;6745410;88;20580;-75
2021/12/09 03:48:14;;;;;;;12.30;3.67;;;2.50;99.90;;;;;;6746412;88;20482;-74
2021/12/09 03:58:15;;;;;;;12.48;4.12;;;2.40;99.90;;;;;;6744542;88;20191;-74
2021/12/09 04:08:17;;;;;;;12.20;4.07;;;2.30;99.90;;;;;;6740770;88;20686;-74
2021/12/09 04:18:18;;;;;;;9.57;3.60;;;2.20;99.90;;;;;;6739703;88;20209;-75
2021/12/09 04:28:19;;;;;;;7.97;3.28;;;1.90;99.90;;;;;;6747049;88;20695;-74
2021/12/09 04:38:20;;;;;;;8.05;2.85;;;2.10;99.90;;;;;;6745725;88;20267;-74
2021/12/09 04:48:20;;;;;;;7.95;2.42;;;2.00;99.90;;;;;;6744630;88;20280;-74
2021/12/09 04:58:23;;;;;;;11.20;2.72;;;2.10;99.90;;;;;;6745475;88;20181;-74
2021/12/09 05:08:28;;;;;;;7.97;3.22;;;2.10;99.90;;;;;;6745397;88;20177;-74
2021/12/09 05:18:31;;;;;;;12.75;4.20;;;2.00;99.90;;;;;;6757390;88;20277;-74
2021/12/09 05:28:35;;;;;;;8.63;3.30;;;1.80;99.90;;;;;;6750581;88;20229;-74
2021/12/09 05:38:37;;;;;;;10.85;3.00;;;2.00;99.90;;;;;;6735107;77;20211;-76
2021/12/09 05:48:39;;;;;;;8.68;2.97;;;2.10;99.90;;;;;;6724164;88;20206;-76
2021/12/09 05:58:39;;;;;;;11.05;3.10;;;2.10;99.90;;;;;;6719769;88;20215;-76
2021/12/09 06:08:40;;;;;;;7.62;2.78;;;1.90;99.90;;;;;;6719997;88;20568;-76
2021/12/09 06:18:41;;;;;;;9.45;3.37;;;2.00;99.90;;;;;;6718521;88;20644;-75
2021/12/09 06:28:41;;;;;;;13.25;4.22;;;1.80;99.90;;;;;;6719795;88;20204;-76
2021/12/09 06:38:42;;;;;;;12.30;4.15;;;1.80;99.90;;;;;;6716281;88;20246;-76
2021/12/09 06:48:42;;;;;;;9.57;4.12;;;1.80;99.90;;;;;;6720318;88;20695;-79
2021/12/09 06:58:43;;;;;;;11.35;3.90;;;1.70;99.90;;;;;;6727961;88;20381;-78
2021/12/09 07:08:48;;;;;;;10.50;3.85;;;1.70;99.90;;;;;;6716039;88;20200;-78
2021/12/09 07:18:50;;;;;;;8.73;4.00;;;1.60;99.90;;;;;;6724282;88;20186;-79
2021/12/09 07:28:50;;;;;;;10.95;5.10;;;1.50;99.90;;;;;;6717676;88;20640;-78
2021/12/09 07:38:51;;;;;;;10.43;2.60;;;1.50;99.90;;;;;;6708592;88;20214;-78
2021/12/09 07:48:52;;;;;;;9.88;4.50;;;1.40;99.90;;;;;;6710966;88;20215;-78
2021/12/09 07:58:52;;;;;;;12.27;4.90;;;1.30;99.90;;;;;;6707731;88;20215;-78
2021/12/09 08:08:53;;;;;;;10.00;4.25;;;1.30;99.90;;;;;;6706980;88;20900;-78
2021/12/09 08:18:53;;;;;;;13.45;4.85;;;1.60;99.90;;;;;;6710915;88;20237;-78
2021/12/09 08:28:54;;;;;;;13.93;4.93;;;1.70;99.90;;;;;;6706928;88;20749;-78
2021/12/09 08:38:55;;;;;;;12.27;4.20;;;1.80;99.90;;;;;;6713617;88;20208;-78
2021/12/09 08:48:56;;;;;;;9.77;3.42;;;1.90;99.90;;;;;;6727389;88;20217;-78
2021/12/09 08:58:57;;;;;;;11.30;3.67;;;2.20;99.90;;;;;;6727793;88;20205;-78
2021/12/09 09:08:58;;;;;;;8.00;4.13;;;2.50;99.90;;;;;;6723799;88;20811;-78
2021/12/09 09:18:59;;;;;;;9.95;3.90;;;2.90;99.90;;;;;;6706906;88;20508;-78
2021/12/09 09:28:59;;;;;;;11.05;3.45;;;3.20;99.90;;;;;;6720119;88;20271;-78
2021/12/09 09:39:16;;;;;;;9.48;3.03;;;3.80;99.90;;;;;;6720390;88;20255;-79
2021/12/09 09:49:17;;;;;;;6.60;2.83;;;4.50;99.90;;;;;;6720449;88;20799;-78
2021/12/09 09:59:18;;;;;;;8.73;2.62;;;4.70;99.90;;;;;;6718958;88;20190;-78
2021/12/09 10:09:19;;;;;;;5.30;2.33;;;4.70;99.90;;;;;;6718869;88;20204;-77
2021/12/09 10:19:21;;;;;;;5.57;2.20;;;5.20;99.90;;;;;;6720926;88;20214;-78
2021/12/09 10:29:32;;;;;;;6.25;2.40;;;5.90;99.90;;;;;;6714509;88;20507;-77
2021/12/09 10:39:47;;;;;;;5.25;1.52;;;5.90;99.90;;;;;;6715914;88;20533;-76
2021/12/09 10:50:11;;;;;;;8.43;2.28;;;5.30;99.90;;;;;;6713903;88;20637;-79
2021/12/09 11:00:19;;;;;;;8.82;1.90;;;5.70;99.90;;;;;;6718065;88;20210;-78
2021/12/09 11:10:24;;;;;;;6.43;2.50;;;5.70;99.90;;;;;;6712807;88;20316;-78
2021/12/09 11:20:41;;;;;;;5.82;1.80;;;5.50;99.90;;;;;;6723529;88;20672;-78
2021/12/09 11:31:04;;;;;;;14.87;2.40;;;5.30;99.90;;;;;;6723413;88;20278;-77
2021/12/09 11:41:05;;;;;;;7.40;2.15;;;5.30;99.90;;;;;;6732841;77;20628;-75
2021/12/09 11:51:07;;;;;;;5.00;1.67;;;5.40;99.90;;;;;;6726015;88;20518;-75
2021/12/09 12:11:35;;;;;;;4.22;1.67;;;5.30;99.90;;;;;;6729544;88;20181;-74
2021/12/09 12:32:28;;;;;;;6.85;2.05;;;5.20;99.90;;;;;;6722514;88;20243;-75
2021/12/09 12:42:56;;;;;;;7.03;1.70;;;5.30;99.90;;;;;;6720219;88;20269;-75
2021/12/09 12:53:30;;;;;;;6.20;1.60;;;5.30;99.90;;;;;;6723758;88;20178;-75
2021/12/09 13:03:41;;;;;;;4.65;1.70;;;5.50;99.90;;;;;;6728178;88;20186;-75
2021/12/09 13:14:06;;;;;;;6.45;1.65;;;5.40;99.90;;;;;;6730486;88;20178;-74
2021/12/09 13:24:24;;;;;;;5.12;1.45;;;5.40;99.90;;;;;;6727519;88;20215;-75
2021/12/09 13:34:34;;;;;;;6.78;1.73;;;5.40;99.90;;;;;;6724597;88;20658;-75
2021/12/09 13:54:59;;;;;;;2.90;1.12;;;5.40;99.90;;;;;;6728514;88;20182;-75
2021/12/09 14:05:00;;;;;;;2.72;1.12;;;5.40;99.90;;;;;;6724741;88;20186;-75
2021/12/09 14:15:06;;;;;;;4.35;1.40;;;5.40;99.90;;;;;;6725391;88;20211;-74
2021/12/09 14:25:33;;;;;;;1.87;1.00;;;5.50;99.90;;;;;;6727096;88;20224;-75
2021/12/09 14:35:42;;;;;;;2.70;1.30;;;5.60;99.90;;;;;;6725565;88;20245;-74
2021/12/09 14:46:07;;;;;;;2.95;0.85;;;5.40;99.90;;;;;;6719361;88;20186;-75
2021/12/09 14:56:24;;;;;;;1.62;0.70;;;5.30;99.90;;;;;;6727822;88;20718;-75
2021/12/09 15:06:30;;;;;;;1.95;0.82;;;5.20;99.90;;;;;;6723697;88;20682;-75
2021/12/09 15:16:30;;;;;;;2.05;0.90;;;5.10;99.90;;;;;;6721817;88;20185;-76
2021/12/09 15:26:35;;;;;;;2.20;0.90;;;5.10;99.90;;;;;;6726750;88;20184;-76
2021/12/09 15:36:36;;;;;;;3.12;0.90;;;5.30;99.90;;;;;;6725133;88;20483;-75
2021/12/09 15:46:51;;;;;;;3.42;1.05;;;5.20;99.90;;;;;;6717706;88;20202;-75
2021/12/09 15:56:58;;;;;;;1.98;0.90;;;5.20;99.90;;;;;;6719680;88;20204;-76
2021/12/09 16:07:00;;;;;;;1.87;0.60;;;5.00;99.90;;;;;;6718445;88;20225;-76
2021/12/09 16:17:05;;;;;;;1.48;0.60;;;4.90;99.90;;;;;;6706859;88;20182;-75
2021/12/09 16:27:05;;;;;;;4.47;1.15;;;4.70;99.90;;;;;;6723371;88;20185;-75
2021/12/09 16:37:06;;;;;;;1.75;0.90;;;4.70;99.90;;;;;;6715463;88;20609;-75
2021/12/09 16:47:07;;;;;;;2.40;1.12;;;4.70;99.90;;;;;;6714846;88;20239;-76
2021/12/09 16:57:22;;;;;;;2.50;1.10;;;4.70;99.90;;;;;;6718898;88;20244;-75
2021/12/09 17:07:22;;;;;;;2.03;1.00;;;4.70;99.90;;;;;;6711799;88;20194;-77
2021/12/09 17:17:23;;;;;;;1.50;0.70;;;4.70;99.90;;;;;;6719445;88;20208;-75
2021/12/09 17:27:24;;;;;;;2.30;1.05;;;4.60;99.90;;;;;;6715423;88;20193;-75
2021/12/09 17:37:25;;;;;;;3.33;1.00;;;4.60;99.90;;;;;;6737135;77;20210;-77
2021/12/09 17:47:27;;;;;;;3.33;1.12;;;4.60;99.90;;;;;;6746976;88;20656;-77
2021/12/09 17:57:28;;;;;;;2.28;1.00;;;4.60;99.90;;;;;;6745719;88;20271;-77
2021/12/09 18:07:29;;;;;;;2.90;1.33;;;4.60;99.90;;;;;;6747491;88;20419;-78
2021/12/09 18:17:37;;;;;;;2.12;1.02;;;4.50;99.90;;;;;;6751464;88;20418;-78
2021/12/09 18:27:39;;;;;;;5.03;0.95;;;4.50;99.90;;;;;;6748958;88;20311;-77
2021/12/09 18:37:49;;;;;;;2.25;1.20;;;4.50;99.90;;;;;;6730195;88;20714;-77
2021/12/09 18:47:52;;;;;;;2.53;1.40;;;4.50;99.90;;;;;;6729352;88;20246;-78
2021/12/09 18:57:53;;;;;;;2.30;1.25;;;4.50;99.90;;;;;;6732838;88;20734;-76
2021/12/09 19:07:54;;;;;;;3.50;1.47;;;4.50;99.90;;;;;;6737601;88;20353;-77
2021/12/09 19:18:02;;;;;;;2.80;1.20;;;4.50;99.90;;;;;;6739847;88;20775;-77
2021/12/09 19:28:02;;;;;;;3.10;1.55;;;4.50;99.90;;;;;;6752032;88;20172;-76
2021/12/09 19:38:04;;;;;;;3.25;1.30;;;4.50;99.90;;;;;;6751897;88;20739;-77
2021/12/09 19:48:05;;;;;;;3.05;1.73;;;4.50;99.90;;;;;;6752616;88;20203;-76
2021/12/09 19:58:07;;;;;;;3.75;1.92;;;4.50;99.90;;;;;;6751705;88;20673;-77
2021/12/09 20:08:08;;;;;;;3.87;2.03;;;4.50;99.90;;;;;;6751986;88;20627;-77
2021/12/09 20:18:08;;;;;;;3.65;2.10;;;4.50;99.90;;;;;;6751034;88;20182;-77
2021/12/09 20:28:10;;;;;;;5.43;2.33;;;4.50;99.90;;;;;;6751770;88;20192;-76
2021/12/09 20:38:10;;;;;;;4.55;2.60;;;4.50;99.90;;;;;;6758082;88;20199;-78
2021/12/09 20:48:11;;;;;;;3.08;1.83;;;4.40;99.90;;;;;;6759059;88;20205;-80
2021/12/09 20:58:12;;;;;;;7.47;2.33;;;4.40;99.90;;;;;;6756458;88;20232;-76
2021/12/09 21:08:13;;;;;;;5.82;2.03;;;4.40;99.90;;;;;;6751304;88;20732;-79
2021/12/09 21:18:15;;;;;;;5.85;3.20;;;4.40;99.90;;;;;;6748023;88;20204;-76
2021/12/09 21:28:19;;;;;;;5.47;2.80;;;4.30;99.90;;;;;;6749454;88;20627;-78
2021/12/09 21:38:19;;;;;;;4.30;2.12;;;4.30;99.90;;;;;;6738778;88;20197;-77
2021/12/09 21:48:21;;;;;;;6.30;3.00;;;4.30;99.90;;;;;;6736356;88;20211;-77
2021/12/09 21:58:21;;;;;;;4.80;2.62;;;4.40;99.90;;;;;;6747447;88;20659;-76
2021/12/09 22:08:22;;;;;;;5.37;2.90;;;4.30;99.90;;;;;;6739733;88;20221;-77
2021/12/09 22:18:23;;;;;;;6.53;3.40;;;4.40;99.90;;;;;;6738423;88;20740;-77
2021/12/09 22:28:23;;;;;;;5.65;2.80;;;4.40;99.90;;;;;;6737624;88;20245;-77
2021/12/09 22:38:24;;;;;;;5.50;2.70;;;4.50;99.90;;;;;;6733901;88;20214;-76
2021/12/09 22:48:27;;;;;;;4.97;2.70;;;4.50;99.90;;;;;;6737006;88;20237;-77
2021/12/09 22:58:27;;;;;;;5.70;2.90;;;4.40;99.90;;;;;;6736252;88;20196;-78
2021/12/09 23:08:30;;;;;;;4.70;2.30;;;4.30;99.90;;;;;;6735420;88;20192;-77
2021/12/09 23:18:32;;;;;;;6.28;3.30;;;4.20;99.90;;;;;;6735482;88;20320;-77
2021/12/09 23:28:36;;;;;;;5.20;3.00;;;3.90;99.90;;;;;;6735737;88;20223;-78
2021/12/09 23:38:37;;;;;;;7.40;2.85;;;4.00;99.90;;;;;;6736247;88;20279;-77
2021/12/09 23:48:38;;;;;;;4.95;2.45;;;3.90;99.90;;;;;;6743523;88;20196;-76
2021/12/09 23:58:38;;;;;;;5.40;2.72;;;3.80;99.90;;;;;;6751338;88;20185;-76
